createdAt,value
2023-01-31T00:02:31.110Z,59.80
2023-01-31T00:05:33.080Z,60.00
2023-01-31T00:08:34.995Z,59.50
2023-01-31T00:11:36.497Z,58.20
2023-01-31T00:14:38.041Z,59.50
2023-01-31T00:17:40.122Z,58.80
2023-01-31T00:20:42.035Z,59.30
2023-01-31T00:23:43.807Z,59.70
2023-01-31T00:26:45.172Z,59.10
2023-01-31T00:29:46.501Z,60.40
2023-01-31T00:32:49.999Z,59.90
2023-01-31T00:35:51.829Z,58.70
2023-01-31T00:38:54.343Z,59.40
2023-01-31T00:41:55.747Z,59.50
2023-01-31T00:44:56.954Z,59.00
2023-01-31T00:47:59.069Z,59.20
2023-01-31T00:51:00.949Z,58.70
2023-01-31T00:54:02.242Z,58.70
2023-01-31T00:57:04.193Z,58.60
2023-01-31T01:00:06.050Z,58.70
2023-01-31T01:03:07.712Z,58.80
2023-01-31T01:06:10.069Z,59.10
2023-01-31T01:09:11.427Z,58.30
2023-01-31T01:12:12.759Z,57.80
2023-01-31T01:15:14.132Z,58.80
2023-01-31T01:18:15.475Z,58.90
2023-01-31T01:21:18.746Z,58.80
2023-01-31T01:24:20.010Z,59.10
2023-01-31T01:27:21.668Z,59.20
2023-01-31T01:30:23.418Z,59.10
2023-01-31T01:33:24.836Z,59.00
2023-01-31T01:36:27.115Z,58.70
2023-01-31T01:39:30.189Z,59.30
2023-01-31T01:42:33.357Z,59.60
2023-01-31T01:45:34.643Z,59.60
2023-01-31T01:48:36.346Z,59.70
2023-01-31T01:51:39.078Z,59.20
2023-01-31T01:54:44.866Z,59.60
2023-01-31T01:57:47.547Z,60.10
2023-01-31T02:00:49.574Z,59.80
2023-01-31T02:08:30.064Z,56.70
2023-01-31T02:11:31.735Z,58.00
2023-01-31T02:14:33.105Z,59.50
2023-01-31T02:17:34.700Z,59.50
2023-01-31T02:20:50.896Z,59.60
2023-01-31T02:24:06.144Z,59.20
2023-01-31T02:27:15.272Z,58.50
2023-01-31T02:30:31.984Z,58.10
2023-01-31T02:33:37.165Z,59.00
2023-01-31T02:36:44.747Z,59.90
2023-01-31T02:39:52.578Z,59.30
2023-01-31T02:42:59.722Z,59.80
2023-01-31T02:46:05.718Z,59.60
2023-01-31T02:49:12.754Z,59.40
2023-01-31T02:52:16.783Z,59.30
2023-01-31T02:55:33.137Z,59.50
2023-01-31T02:58:36.876Z,59.20
2023-01-31T03:01:41.337Z,59.10
2023-01-31T03:04:44.027Z,59.50
2023-01-31T03:07:47.597Z,59.20
2023-01-31T03:10:58.274Z,58.30
2023-01-31T03:14:04.996Z,59.40
2023-01-31T03:17:23.162Z,59.30
2023-01-31T03:20:29.284Z,58.40
2023-01-31T03:23:33.889Z,58.40
2023-01-31T03:26:36.555Z,59.20
2023-01-31T03:29:38.586Z,59.60
2023-01-31T03:32:44.648Z,59.10
2023-01-31T03:35:48.444Z,59.80
2023-01-31T03:38:54.505Z,59.40
2023-01-31T03:41:57.147Z,59.20
2023-01-31T03:45:03.937Z,58.80
2023-01-31T03:48:09.408Z,58.40
2023-01-31T03:51:17.450Z,59.10
2023-01-31T03:54:20.547Z,59.20
2023-01-31T03:57:23.508Z,58.70
2023-01-31T04:00:25.513Z,58.70
2023-01-31T04:03:33.808Z,59.40
2023-01-31T04:06:35.781Z,59.40
2023-01-31T04:09:37.603Z,59.00
2023-01-31T04:12:39.085Z,57.70
2023-01-31T04:15:40.468Z,58.50
2023-01-31T04:18:41.722Z,59.40
2023-01-31T04:21:43.521Z,59.00
2023-01-31T04:24:44.796Z,59.00
2023-01-31T04:27:46.154Z,58.90
2023-01-31T04:30:51.502Z,60.00
2023-01-31T04:33:52.772Z,59.30
2023-01-31T04:36:54.612Z,59.20
2023-01-31T04:39:55.814Z,59.80
2023-01-31T04:42:57.061Z,60.10
2023-01-31T04:45:58.386Z,59.60
2023-01-31T04:48:59.726Z,59.20
2023-01-31T04:52:01.640Z,60.00
2023-01-31T04:55:03.014Z,59.80
2023-01-31T04:58:06.722Z,60.00
2023-01-31T05:01:08.696Z,59.90
2023-01-31T05:04:11.424Z,59.60
2023-01-31T05:07:13.312Z,59.10
2023-01-31T05:10:15.221Z,57.80
2023-01-31T05:13:16.603Z,58.80
2023-01-31T05:16:18.117Z,58.60
2023-01-31T05:19:19.411Z,58.50
2023-01-31T05:22:21.881Z,58.90
2023-01-31T05:25:23.495Z,59.10
2023-01-31T05:28:25.511Z,59.30
2023-01-31T05:31:27.135Z,59.00
2023-01-31T05:34:32.526Z,59.00
2023-01-31T05:37:34.445Z,59.40
2023-01-31T05:40:35.953Z,59.30
2023-01-31T05:43:37.305Z,59.10
2023-01-31T05:46:38.674Z,59.30
2023-01-31T05:49:39.955Z,58.90
2023-01-31T05:52:41.763Z,58.60
2023-01-31T05:55:43.802Z,59.40
2023-01-31T05:58:49.566Z,59.20
2023-01-31T06:01:50.971Z,58.80
2023-01-31T06:04:52.368Z,58.40
2023-01-31T06:07:54.514Z,58.60
2023-01-31T06:10:55.709Z,57.70
2023-01-31T06:13:58.560Z,58.90
2023-01-31T06:17:00.509Z,58.90
2023-01-31T06:20:02.248Z,59.40
2023-01-31T06:23:04.125Z,58.60
2023-01-31T06:26:05.807Z,59.50
2023-01-31T06:29:07.767Z,58.50
2023-01-31T06:32:09.087Z,58.90
2023-01-31T06:35:10.307Z,58.80
2023-01-31T06:38:12.504Z,59.00
2023-01-31T06:41:14.098Z,58.80
2023-01-31T06:44:15.350Z,59.20
2023-01-31T06:47:16.734Z,58.40
2023-01-31T06:50:18.038Z,58.20
2023-01-31T06:53:19.991Z,57.50
2023-01-31T06:56:21.382Z,57.70
2023-01-31T06:59:22.602Z,58.10
2023-01-31T07:02:23.964Z,58.60
2023-01-31T07:05:25.277Z,57.90
2023-01-31T07:08:27.135Z,59.10
2023-01-31T07:11:28.513Z,57.90
2023-01-31T07:14:30.164Z,58.40
2023-01-31T07:17:32.576Z,58.10
2023-01-31T07:20:33.869Z,58.50
2023-01-31T07:23:35.701Z,58.10
2023-01-31T07:26:37.003Z,57.40
2023-01-31T07:29:38.532Z,57.60
2023-01-31T07:32:39.905Z,57.20
2023-01-31T07:35:41.224Z,57.30
2023-01-31T07:38:43.085Z,57.70
2023-01-31T07:41:44.487Z,58.40
2023-01-31T07:44:45.797Z,57.90
2023-01-31T07:47:47.213Z,58.10
2023-01-31T07:50:49.243Z,57.70
2023-01-31T07:53:51.078Z,57.50
2023-01-31T07:56:52.466Z,57.90
2023-01-31T07:59:53.694Z,57.50
2023-01-31T08:03:09.636Z,58.40
2023-01-31T08:06:11.798Z,57.70
2023-01-31T08:09:13.745Z,58.50
2023-01-31T08:12:15.374Z,57.50
2023-01-31T08:15:16.709Z,57.10
2023-01-31T08:18:18.249Z,57.40
2023-01-31T08:21:19.493Z,58.60
2023-01-31T08:24:21.420Z,57.70
2023-01-31T08:27:22.714Z,57.70
2023-01-31T08:30:23.970Z,57.40
2023-01-31T08:33:25.288Z,58.20
2023-01-31T08:36:31.421Z,58.00
2023-01-31T08:39:33.585Z,58.30
2023-01-31T08:42:34.866Z,57.20
2023-01-31T08:45:36.445Z,58.40
2023-01-31T08:48:38.285Z,57.30
2023-01-31T08:51:39.531Z,57.60
2023-01-31T08:54:41.407Z,57.60
2023-01-31T08:57:57.973Z,58.00
2023-01-31T09:01:01.162Z,57.10
2023-01-31T09:04:02.403Z,58.10
2023-01-31T09:07:03.830Z,58.00
2023-01-31T09:10:05.956Z,58.10
2023-01-31T09:13:07.656Z,58.10
2023-01-31T09:16:10.000Z,57.40
2023-01-31T09:19:12.644Z,57.30
2023-01-31T09:22:13.897Z,56.90
2023-01-31T09:25:15.762Z,56.50
2023-01-31T09:28:17.059Z,57.70
2023-01-31T09:31:19.941Z,57.30
2023-01-31T09:34:21.542Z,57.10
2023-01-31T09:37:22.918Z,56.60
2023-01-31T09:40:26.098Z,57.50
2023-01-31T09:43:30.127Z,57.40
2023-01-31T09:46:33.394Z,57.00
2023-01-31T09:49:41.796Z,56.70
2023-01-31T09:52:43.068Z,57.50
2023-01-31T09:55:49.180Z,56.90
2023-01-31T09:58:55.057Z,56.70
2023-01-31T10:01:59.348Z,56.80
2023-01-31T10:05:06.198Z,57.20
2023-01-31T10:08:13.044Z,57.00
2023-01-31T10:11:16.391Z,55.60
2023-01-31T10:14:21.542Z,56.50
2023-01-31T10:17:25.450Z,57.10
2023-01-31T10:20:31.585Z,56.80
2023-01-31T10:23:34.925Z,56.60
2023-01-31T10:26:38.524Z,57.00
2023-01-31T10:29:42.747Z,56.70
2023-01-31T10:32:47.936Z,56.70
2023-01-31T10:35:52.139Z,56.80
2023-01-31T10:38:58.006Z,57.00
2023-01-31T10:42:05.927Z,57.60
2023-01-31T10:45:12.689Z,56.60
2023-01-31T10:48:15.177Z,57.00
2023-01-31T10:51:26.487Z,57.30
2023-01-31T10:54:34.569Z,57.20
2023-01-31T10:57:36.574Z,56.70
2023-01-31T11:00:37.825Z,57.50
2023-01-31T11:03:39.429Z,56.70
2023-01-31T11:06:40.714Z,56.80
2023-01-31T11:09:43.311Z,55.80
2023-01-31T11:12:52.228Z,56.50
2023-01-31T11:15:54.788Z,57.20
2023-01-31T11:18:56.976Z,57.80
2023-01-31T11:21:58.564Z,57.00
2023-01-31T11:25:01.236Z,57.70
2023-01-31T11:28:14.721Z,57.00
2023-01-31T11:31:18.731Z,57.40
2023-01-31T11:34:22.707Z,56.90
2023-01-31T11:37:24.283Z,56.60
2023-01-31T11:40:28.999Z,57.20
2023-01-31T11:43:31.098Z,57.20
2023-01-31T11:46:41.915Z,57.30
2023-01-31T11:49:43.262Z,55.30
2023-01-31T11:52:45.012Z,56.20
2023-01-31T11:55:47.365Z,55.30
2023-01-31T11:58:50.433Z,56.70
2023-01-31T12:01:52.903Z,56.10
2023-01-31T12:04:54.499Z,55.10
2023-01-31T12:07:56.438Z,56.50
2023-01-31T12:10:58.289Z,55.10
2023-01-31T12:14:02.044Z,56.00
2023-01-31T12:17:03.541Z,55.60
2023-01-31T12:20:26.696Z,55.40
2023-01-31T12:23:34.713Z,55.80
2023-01-31T12:26:40.348Z,55.50
2023-01-31T12:29:47.559Z,54.80
2023-01-31T12:32:56.974Z,56.10
2023-01-31T12:36:07.982Z,56.40
2023-01-31T12:39:14.430Z,55.80
2023-01-31T12:42:24.196Z,55.30
2023-01-31T12:45:39.369Z,55.70
2023-01-31T12:48:49.259Z,54.30
2023-01-31T12:51:58.664Z,56.00
2023-01-31T12:55:07.270Z,55.50
2023-01-31T12:58:15.731Z,56.50
2023-01-31T13:01:21.396Z,55.80
2023-01-31T13:04:28.294Z,55.60
2023-01-31T13:07:32.879Z,55.50
2023-01-31T13:10:35.933Z,54.40
2023-01-31T13:13:39.754Z,55.40
2023-01-31T13:16:43.275Z,55.60
2023-01-31T13:19:50.494Z,55.70
2023-01-31T13:22:54.143Z,55.30
2023-01-31T13:25:57.398Z,54.40
2023-01-31T13:29:01.136Z,54.40
2023-01-31T13:32:06.158Z,54.10
2023-01-31T13:35:14.075Z,54.80
2023-01-31T13:38:17.777Z,54.40
2023-01-31T13:41:23.305Z,56.00
2023-01-31T13:44:24.863Z,55.60
2023-01-31T13:47:29.404Z,55.00
2023-01-31T13:50:33.566Z,56.20
2023-01-31T13:53:36.120Z,56.70
2023-01-31T13:56:38.804Z,55.50
2023-01-31T13:59:40.071Z,56.00
2023-01-31T14:02:58.586Z,56.30
2023-01-31T14:06:01.169Z,56.60
2023-01-31T14:09:02.564Z,55.30
2023-01-31T14:12:18.673Z,55.00
2023-01-31T14:15:34.905Z,55.90
2023-01-31T14:18:41.535Z,56.70
2023-01-31T14:21:44.284Z,56.40
2023-01-31T14:24:59.274Z,56.50
2023-01-31T14:28:02.169Z,56.40
2023-01-31T14:31:10.627Z,55.80
2023-01-31T14:34:16.962Z,56.00
2023-01-31T14:37:25.626Z,56.50
2023-01-31T14:40:27.655Z,55.30
2023-01-31T14:43:34.264Z,55.90
2023-01-31T14:46:40.753Z,56.20
2023-01-31T14:49:50.126Z,56.60
2023-01-31T14:53:03.591Z,56.30
2023-01-31T14:56:13.788Z,56.60
2023-01-31T14:59:22.018Z,56.20
2023-01-31T15:02:34.557Z,57.20
2023-01-31T15:05:42.256Z,56.30
2023-01-31T15:08:44.566Z,56.80
2023-01-31T15:11:46.573Z,55.80
2023-01-31T15:14:48.447Z,56.40
2023-01-31T15:17:53.294Z,56.60
2023-01-31T15:20:56.889Z,56.60
2023-01-31T15:23:59.366Z,56.20
2023-01-31T15:27:01.602Z,56.90
2023-01-31T15:30:06.051Z,56.90
2023-01-31T15:33:12.891Z,56.70
2023-01-31T15:36:19.017Z,56.00
2023-01-31T15:39:22.504Z,56.10
2023-01-31T15:42:24.886Z,56.40
2023-01-31T15:45:27.216Z,56.90
2023-01-31T15:48:28.514Z,56.40
2023-01-31T15:51:30.356Z,56.90
2023-01-31T15:54:31.584Z,56.60
2023-01-31T15:57:36.227Z,56.80
2023-01-31T16:00:38.140Z,55.90
2023-01-31T16:03:40.975Z,56.70
2023-01-31T16:06:42.846Z,56.40
2023-01-31T16:09:44.248Z,55.40
2023-01-31T16:12:47.560Z,56.00
2023-01-31T16:15:48.928Z,56.80
2023-01-31T16:18:51.143Z,56.70
2023-01-31T16:21:53.696Z,56.30
2023-01-31T16:24:55.749Z,55.90
2023-01-31T16:28:01.517Z,56.30
2023-01-31T16:31:03.657Z,55.40
2023-01-31T16:34:08.740Z,55.80
2023-01-31T16:37:11.791Z,56.10
2023-01-31T16:40:18.130Z,56.30
2023-01-31T16:43:20.732Z,55.60
2023-01-31T16:46:36.506Z,56.70
2023-01-31T16:49:37.945Z,55.80
2023-01-31T16:52:40.217Z,56.40
2023-01-31T16:55:41.479Z,57.00
2023-01-31T16:58:45.587Z,56.90
2023-01-31T17:01:54.304Z,56.80
2023-01-31T17:04:57.307Z,57.00
2023-01-31T17:07:59.282Z,56.50
2023-01-31T17:11:00.565Z,55.70
2023-01-31T17:14:01.910Z,56.40
2023-01-31T17:17:04.614Z,56.80
2023-01-31T17:20:09.305Z,56.60
2023-01-31T17:23:11.988Z,56.90
2023-01-31T17:26:14.790Z,56.20
2023-01-31T17:29:16.061Z,57.00
2023-01-31T17:32:18.154Z,56.70
2023-01-31T17:35:21.107Z,57.10
2023-01-31T17:38:23.136Z,56.00
2023-01-31T17:41:24.882Z,56.00
2023-01-31T17:44:26.315Z,56.70
2023-01-31T17:47:27.596Z,57.00
2023-01-31T17:50:29.137Z,56.50
2023-01-31T17:53:37.299Z,57.10
2023-01-31T17:56:41.839Z,56.90
2023-01-31T17:59:43.099Z,56.70
2023-01-31T18:02:44.483Z,57.10
2023-01-31T18:05:46.250Z,57.70
2023-01-31T18:08:48.231Z,56.60
2023-01-31T18:11:49.487Z,56.50
2023-01-31T18:14:50.937Z,56.80
2023-01-31T18:17:52.208Z,57.00
2023-01-31T18:20:53.535Z,57.20
2023-01-31T18:23:56.054Z,57.50
2023-01-31T18:26:57.501Z,57.10
2023-01-31T18:29:58.788Z,57.80
2023-01-31T18:33:01.197Z,57.00
2023-01-31T18:36:02.969Z,57.50
2023-01-31T18:39:04.891Z,57.20
2023-01-31T18:42:06.188Z,58.40
2023-01-31T18:45:08.437Z,56.70
2023-01-31T18:48:09.667Z,57.60
2023-01-31T18:51:11.835Z,57.20
2023-01-31T18:54:13.617Z,57.20
2023-01-31T18:57:14.865Z,57.00
2023-01-31T19:00:16.535Z,57.00
2023-01-31T19:03:17.944Z,56.70
2023-01-31T19:06:20.272Z,56.90
2023-01-31T19:09:22.229Z,56.30
2023-01-31T19:12:23.489Z,56.90
2023-01-31T19:15:24.877Z,57.40
2023-01-31T19:18:26.486Z,58.10
2023-01-31T19:21:29.193Z,57.00
2023-01-31T19:24:31.086Z,58.30
2023-01-31T19:27:32.355Z,57.40
2023-01-31T19:30:33.683Z,58.00
2023-01-31T19:33:35.319Z,57.50
2023-01-31T19:36:37.593Z,58.90
2023-01-31T19:39:39.486Z,58.70
2023-01-31T19:42:42.655Z,59.00
2023-01-31T19:45:43.971Z,58.20
2023-01-31T19:48:45.454Z,58.90
2023-01-31T19:51:47.017Z,57.30
2023-01-31T19:54:49.856Z,57.80
2023-01-31T19:57:51.115Z,58.40
2023-01-31T20:00:52.378Z,58.90
2023-01-31T20:03:53.941Z,58.90
2023-01-31T20:06:55.237Z,58.90
2023-01-31T20:09:57.055Z,58.80
2023-01-31T20:13:01.594Z,60.00
2023-01-31T20:16:05.155Z,59.50
2023-01-31T20:19:06.884Z,59.30
2023-01-31T20:22:08.343Z,58.70
2023-01-31T20:25:10.342Z,59.90
2023-01-31T20:28:11.606Z,59.40
2023-01-31T20:31:13.601Z,59.50
2023-01-31T20:34:15.042Z,58.20
2023-01-31T20:37:16.301Z,59.50
2023-01-31T20:40:18.359Z,58.90
2023-01-31T20:43:20.350Z,58.80
2023-01-31T20:46:21.676Z,58.10
2023-01-31T20:49:24.647Z,59.40
2023-01-31T20:52:25.999Z,58.40
2023-01-31T20:55:29.725Z,59.20
2023-01-31T20:58:32.169Z,59.60
2023-01-31T21:01:33.444Z,57.50
2023-01-31T21:04:34.785Z,59.90
2023-01-31T21:07:36.057Z,59.60
2023-01-31T21:10:37.864Z,59.00
2023-01-31T21:13:39.440Z,60.30
2023-01-31T21:16:40.648Z,59.90
2023-01-31T21:19:42.158Z,59.80
2023-01-31T21:22:43.498Z,60.20
2023-01-31T21:25:45.414Z,60.10
2023-01-31T21:28:46.804Z,59.30
2023-01-31T21:31:48.250Z,60.00
2023-01-31T21:34:50.495Z,59.20
2023-01-31T21:37:52.081Z,59.80
2023-01-31T21:41:09.331Z,59.00
2023-01-31T21:44:10.561Z,60.00
2023-01-31T21:47:12.409Z,59.40
2023-01-31T21:50:13.734Z,59.10
2023-01-31T21:53:15.086Z,59.10
2023-01-31T21:56:18.179Z,59.40
2023-01-31T21:59:19.597Z,59.30
2023-01-31T22:02:20.920Z,59.20
2023-01-31T22:05:22.286Z,59.50
2023-01-31T22:08:23.529Z,59.60
2023-01-31T22:11:25.454Z,58.30
2023-01-31T22:14:26.838Z,59.20
2023-01-31T22:17:28.213Z,59.00
2023-01-31T22:20:29.535Z,59.70
2023-01-31T22:23:32.173Z,59.60
2023-01-31T22:26:35.706Z,59.80
2023-01-31T22:29:37.102Z,59.90
2023-01-31T22:32:38.329Z,61.00
2023-01-31T22:35:39.663Z,60.90
2023-01-31T22:38:41.201Z,59.80
2023-01-31T22:41:43.813Z,59.40
2023-01-31T22:44:45.063Z,61.10
2023-01-31T22:47:46.782Z,59.80
2023-01-31T22:50:52.561Z,60.80
2023-01-31T22:53:54.673Z,60.20
2023-01-31T22:56:56.510Z,59.90
2023-01-31T22:59:57.716Z,60.60
2023-01-31T23:02:59.012Z,61.10
2023-01-31T23:06:01.906Z,60.50
2023-01-31T23:09:03.774Z,59.90
2023-01-31T23:12:06.204Z,60.00
2023-01-31T23:15:08.760Z,60.40
2023-01-31T23:18:13.824Z,60.70
2023-01-31T23:21:16.699Z,60.60
2023-01-31T23:24:18.334Z,59.80
2023-01-31T23:27:20.165Z,59.80
2023-01-31T23:30:21.882Z,60.00
2023-01-31T23:33:23.369Z,60.20
2023-01-31T23:36:24.904Z,60.20
2023-01-31T23:39:26.338Z,58.60
2023-01-31T23:42:28.330Z,58.70
2023-01-31T23:45:30.194Z,59.60
2023-01-31T23:48:32.680Z,59.60
2023-01-31T23:51:34.197Z,59.30
2023-01-31T23:54:35.529Z,60.10
2023-01-31T23:57:37.343Z,60.30
